createdAt,value
2023-03-08T00:00:18.710Z,93786.00
2023-03-08T00:01:18.666Z,93788.00
2023-03-08T00:02:18.646Z,93795.00
2023-03-08T00:03:18.639Z,93791.00
2023-03-08T00:54:55.391Z,93829.00
2023-03-08T00:55:56.356Z,93831.00
2023-03-08T00:56:56.344Z,93833.00
2023-03-08T00:57:56.332Z,93833.00
2023-03-08T00:58:56.321Z,93831.00
2023-03-08T00:59:56.321Z,93831.00
2023-03-08T01:00:56.358Z,93827.00
2023-03-08T01:01:56.301Z,93829.00
2023-03-08T01:02:56.298Z,93831.00
2023-03-08T01:03:56.337Z,93829.00
2023-03-08T01:04:56.272Z,93827.00
2023-03-08T01:05:56.282Z,93829.00
2023-03-08T01:06:56.262Z,93831.00
2023-03-08T01:07:56.249Z,93829.00
2023-03-08T01:08:56.252Z,93829.00
2023-03-08T01:09:56.239Z,93827.00
2023-03-08T01:10:56.247Z,93825.00
2023-03-08T01:11:56.214Z,93825.00
2023-03-08T01:12:56.197Z,93823.00
2023-03-08T01:13:56.210Z,93823.00
2023-03-08T01:14:56.187Z,93823.00
2023-03-08T01:15:56.186Z,93821.00
2023-03-08T01:16:56.184Z,93823.00
2023-03-08T01:17:56.165Z,93825.00
2023-03-08T01:18:56.151Z,93821.00
2023-03-08T01:19:56.153Z,93821.00
2023-03-08T01:20:56.140Z,93821.00
2023-03-08T01:21:56.141Z,93821.00
2023-03-08T01:22:56.121Z,93821.00
2023-03-08T01:23:56.114Z,93821.00
2023-03-08T01:24:56.110Z,93819.00
2023-03-08T01:25:56.090Z,93817.00
2023-03-08T01:26:56.125Z,93817.00
2023-03-08T01:27:56.074Z,93819.00
2023-03-08T01:28:56.070Z,93819.00
2023-03-08T01:29:56.076Z,93821.00
2023-03-08T01:30:56.060Z,93823.00
2023-03-08T01:31:56.047Z,93823.00
2023-03-08T01:32:56.051Z,93827.00
2023-03-08T01:33:56.036Z,93827.00
2023-03-08T01:34:56.027Z,93825.00
2023-03-08T01:35:56.062Z,93823.00
2023-03-08T01:36:56.002Z,93819.00
2023-03-08T01:37:55.989Z,93819.00
2023-03-08T01:38:56.004Z,93819.00
2023-03-08T01:39:55.986Z,93819.00
2023-03-08T01:40:55.971Z,93817.00
2023-03-08T01:41:55.964Z,93819.00
2023-03-08T01:42:55.978Z,93817.00
2023-03-08T01:43:55.943Z,93815.00
2023-03-08T01:44:55.942Z,93813.00
2023-03-08T01:45:55.942Z,93811.00
2023-03-08T01:46:55.923Z,93811.00
2023-03-08T01:47:55.923Z,93815.00
2023-03-08T01:48:55.907Z,93811.00
2023-03-08T01:49:55.899Z,93811.00
2023-03-08T01:50:55.884Z,93811.00
2023-03-08T01:51:55.878Z,93813.00
2023-03-08T01:52:55.880Z,93817.00
2023-03-08T01:53:55.862Z,93819.00
2023-03-08T01:54:55.874Z,93825.00
2023-03-08T01:55:55.844Z,93825.00
2023-03-08T01:56:55.836Z,93821.00
2023-03-08T01:57:55.840Z,93821.00
2023-03-08T01:58:55.851Z,93815.00
2023-03-08T01:59:55.808Z,93815.00
2023-03-08T02:00:55.871Z,93817.00
2023-03-08T02:01:55.800Z,93813.00
2023-03-08T02:02:55.785Z,93813.00
2023-03-08T02:03:55.778Z,93807.00
2023-03-08T02:04:55.770Z,93807.00
2023-03-08T02:05:55.766Z,93805.00
2023-03-08T02:06:55.760Z,93805.00
2023-03-08T02:07:55.754Z,93805.00
2023-03-08T02:08:55.750Z,93801.00
2023-03-08T02:09:55.738Z,93801.00
2023-03-08T02:10:55.723Z,93797.00
2023-03-08T02:11:55.719Z,93799.00
2023-03-08T02:12:55.708Z,93801.00
2023-03-08T02:13:55.701Z,93803.00
2023-03-08T02:14:55.724Z,93805.00
2023-03-08T02:15:55.692Z,93805.00
2023-03-08T02:16:55.679Z,93805.00
2023-03-08T02:17:55.668Z,93807.00
2023-03-08T02:18:55.662Z,93807.00
2023-03-08T02:19:55.655Z,93811.00
2023-03-08T02:20:55.654Z,93815.00
2023-03-08T02:21:55.641Z,93813.00
2023-03-08T02:22:55.635Z,93813.00
2023-03-08T02:23:55.622Z,93815.00
2023-03-08T02:24:55.617Z,93819.00
2023-03-08T02:25:55.607Z,93817.00
2023-03-08T02:26:55.598Z,93819.00
2023-03-08T02:27:55.589Z,93817.00
2023-03-08T02:28:55.623Z,93819.00
2023-03-08T02:29:55.580Z,93819.00
2023-03-08T02:30:55.600Z,93819.00
2023-03-08T02:31:55.559Z,93819.00
2023-03-08T02:32:55.552Z,93817.00
2023-03-08T02:33:55.546Z,93813.00
2023-03-08T02:34:55.538Z,93813.00
2023-03-08T02:35:55.612Z,93811.00
2023-03-08T02:36:55.538Z,93813.00
2023-03-08T02:37:55.521Z,93817.00
2023-03-08T02:38:55.508Z,93817.00
2023-03-08T02:39:55.518Z,93815.00
2023-03-08T02:40:55.484Z,93815.00
2023-03-08T02:41:55.483Z,93813.00
2023-03-08T02:42:55.470Z,93811.00
2023-03-08T02:43:55.462Z,93809.00
2023-03-08T02:44:55.479Z,93809.00
2023-03-08T02:45:55.443Z,93805.00
2023-03-08T02:46:55.529Z,93801.00
2023-03-08T02:47:55.436Z,93797.00
2023-03-08T02:48:55.425Z,93795.00
2023-03-08T02:49:55.422Z,93797.00
2023-03-08T02:50:55.403Z,93797.00
2023-03-08T02:51:55.406Z,93793.00
2023-03-08T02:52:55.391Z,93789.00
2023-03-08T02:53:55.378Z,93789.00
2023-03-08T02:54:55.372Z,93788.00
2023-03-08T02:55:55.364Z,93786.00
2023-03-08T02:56:55.347Z,93786.00
2023-03-08T02:57:55.352Z,93782.00
2023-03-08T02:58:55.339Z,93782.00
2023-03-08T02:59:55.333Z,93782.00
2023-03-08T03:00:55.322Z,93788.00
2023-03-08T03:01:55.316Z,93780.00
2023-03-08T03:02:55.326Z,93780.00
2023-03-08T03:03:55.313Z,93782.00
2023-03-08T03:04:55.293Z,93782.00
2023-03-08T03:05:55.281Z,93780.00
2023-03-08T03:06:55.279Z,93778.00
2023-03-08T03:07:55.270Z,93778.00
2023-03-08T03:08:55.257Z,93778.00
2023-03-08T03:09:55.255Z,93774.00
2023-03-08T03:10:55.245Z,93778.00
2023-03-08T03:11:55.233Z,93776.00
2023-03-08T03:12:55.220Z,93772.00
2023-03-08T03:13:55.217Z,93770.00
2023-03-08T03:14:55.206Z,93770.00
2023-03-08T03:15:55.267Z,93768.00
2023-03-08T03:16:55.199Z,93770.00
2023-03-08T03:17:55.180Z,93766.00
2023-03-08T03:18:55.249Z,93768.00
2023-03-08T03:19:55.164Z,93770.00
2023-03-08T03:20:55.167Z,93768.00
2023-03-08T03:21:55.149Z,93766.00
2023-03-08T03:22:55.147Z,93766.00
2023-03-08T03:23:55.144Z,93766.00
2023-03-08T03:24:55.125Z,93764.00
2023-03-08T03:25:55.114Z,93762.00
2023-03-08T03:26:55.104Z,93762.00
2023-03-08T03:27:55.098Z,93764.00
2023-03-08T03:28:55.094Z,93764.00
2023-03-08T03:29:55.084Z,93760.00
2023-03-08T03:30:55.099Z,93762.00
2023-03-08T03:31:55.064Z,93764.00
2023-03-08T03:32:55.058Z,93764.00
2023-03-08T03:33:55.047Z,93762.00
2023-03-08T03:34:55.073Z,93768.00
2023-03-08T03:35:55.096Z,93768.00
2023-03-08T03:36:55.030Z,93766.00
2023-03-08T03:37:55.011Z,93760.00
2023-03-08T03:39:55.002Z,93756.00
2023-03-08T03:40:54.995Z,93760.00
2023-03-08T03:41:54.980Z,93756.00
2023-03-08T03:42:54.972Z,93758.00
2023-03-08T03:43:54.966Z,93758.00
2023-03-08T03:44:54.954Z,93760.00
2023-03-08T03:45:54.945Z,93758.00
2023-03-08T03:46:54.943Z,93760.00
2023-03-08T03:47:54.943Z,93764.00
2023-03-08T03:48:54.932Z,93766.00
2023-03-08T03:49:54.924Z,93770.00
2023-03-08T03:50:54.936Z,93764.00
2023-03-08T03:52:54.899Z,93762.00
2023-03-08T03:54:54.882Z,93760.00
2023-03-08T03:55:54.885Z,93760.00
2023-03-08T03:56:54.868Z,93760.00
2023-03-08T03:57:54.858Z,93762.00
2023-03-08T03:58:54.869Z,93762.00
2023-03-08T03:59:54.848Z,93764.00
2023-03-08T04:00:54.832Z,93764.00
2023-03-08T04:01:54.831Z,93762.00
2023-03-08T04:02:54.891Z,93760.00
2023-03-08T04:03:54.923Z,93760.00
2023-03-08T04:04:54.830Z,93760.00
2023-03-08T04:05:54.801Z,93760.00
2023-03-08T04:06:54.815Z,93762.00
2023-03-08T04:07:54.784Z,93760.00
2023-03-08T04:08:54.773Z,93764.00
2023-03-08T04:09:54.765Z,93758.00
2023-03-08T04:10:54.763Z,93756.00
2023-03-08T04:11:54.745Z,93758.00
2023-03-08T04:12:54.752Z,93760.00
2023-03-08T04:13:54.729Z,93760.00
2023-03-08T04:14:54.725Z,93764.00
2023-03-08T04:15:54.747Z,93766.00
2023-03-08T04:16:54.712Z,93766.00
2023-03-08T04:17:54.700Z,93766.00
2023-03-08T04:18:54.692Z,93770.00
2023-03-08T04:19:54.689Z,93768.00
2023-03-08T04:20:54.687Z,93768.00
2023-03-08T04:21:54.665Z,93770.00
2023-03-08T04:22:54.787Z,93766.00
2023-03-08T04:23:54.655Z,93766.00
2023-03-08T04:24:54.648Z,93766.00
2023-03-08T04:25:54.644Z,93766.00
2023-03-08T04:27:54.618Z,93762.00
2023-03-08T04:28:54.607Z,93760.00
2023-03-08T04:29:54.617Z,93764.00
2023-03-08T04:30:54.595Z,93766.00
2023-03-08T04:31:54.588Z,93766.00
2023-03-08T04:32:54.586Z,93766.00
2023-03-08T04:33:54.568Z,93766.00
2023-03-08T04:34:54.564Z,93768.00
2023-03-08T04:35:54.573Z,93772.00
2023-03-08T04:36:54.546Z,93774.00
2023-03-08T04:37:54.535Z,93778.00
2023-03-08T04:39:54.528Z,93776.00
2023-03-08T04:40:54.526Z,93774.00
2023-03-08T04:41:54.501Z,93772.00
2023-03-08T04:42:54.497Z,93770.00
2023-03-08T04:43:54.491Z,93770.00
2023-03-08T04:44:54.484Z,93768.00
2023-03-08T04:45:54.473Z,93764.00
2023-03-08T04:46:54.675Z,93762.00
2023-03-08T04:47:54.474Z,93758.00
2023-03-08T04:48:54.445Z,93760.00
2023-03-08T04:49:54.445Z,93760.00
2023-03-08T04:50:54.431Z,93760.00
2023-03-08T04:51:54.424Z,93760.00
2023-03-08T04:52:54.427Z,93762.00
2023-03-08T04:53:54.416Z,93760.00
2023-03-08T04:54:54.491Z,93752.00
2023-03-08T04:55:54.392Z,93752.00
2023-03-08T04:56:54.384Z,93748.00
2023-03-08T04:57:54.381Z,93750.00
2023-03-08T04:58:54.384Z,93746.00
2023-03-08T04:59:54.360Z,93742.00
2023-03-08T05:00:54.355Z,93744.00
2023-03-08T05:01:54.413Z,93741.00
2023-03-08T05:02:54.335Z,93739.00
2023-03-08T05:03:54.324Z,93735.00
2023-03-08T05:04:54.378Z,93733.00
2023-03-08T05:05:54.317Z,93727.00
2023-03-08T05:06:54.310Z,93725.00
2023-03-08T05:07:54.295Z,93725.00
2023-03-08T05:08:54.288Z,93723.00
2023-03-08T05:09:54.282Z,93721.00
2023-03-08T05:10:54.322Z,93721.00
2023-03-08T05:11:54.273Z,93725.00
2023-03-08T05:12:54.250Z,93723.00
2023-03-08T05:13:54.247Z,93721.00
2023-03-08T05:14:54.239Z,93721.00
2023-03-08T05:15:54.232Z,93721.00
2023-03-08T05:16:54.224Z,93721.00
2023-03-08T05:17:54.215Z,93721.00
2023-03-08T05:18:54.202Z,93721.00
2023-03-08T05:19:54.197Z,93721.00
2023-03-08T05:20:54.203Z,93719.00
2023-03-08T05:21:54.185Z,93713.00
2023-03-08T05:22:59.126Z,93713.00
2023-03-08T05:23:54.169Z,93711.00
2023-03-08T05:24:54.845Z,93709.00
2023-03-08T05:25:54.153Z,93701.00
2023-03-08T05:26:54.170Z,93699.00
2023-03-08T05:27:54.157Z,93693.00
2023-03-08T05:28:54.124Z,93689.00
2023-03-08T05:29:54.130Z,93691.00
2023-03-08T05:30:54.107Z,93693.00
2023-03-08T05:31:54.232Z,93691.00
2023-03-08T05:32:54.088Z,93691.00
2023-03-08T05:33:54.087Z,93691.00
2023-03-08T05:34:54.108Z,93693.00
2023-03-08T05:35:54.069Z,93697.00
2023-03-08T05:37:54.050Z,93701.00
2023-03-08T05:38:54.054Z,93705.00
2023-03-08T05:39:54.032Z,93703.00
2023-03-08T05:40:54.032Z,93703.00
2023-03-08T05:41:54.053Z,93703.00
2023-03-08T05:42:54.040Z,93703.00
2023-03-08T05:43:54.014Z,93701.00
2023-03-08T05:44:54.004Z,93699.00
2023-03-08T05:45:54.029Z,93701.00
2023-03-08T05:46:53.977Z,93699.00
2023-03-08T05:47:53.974Z,93693.00
2023-03-08T05:48:53.962Z,93695.00
2023-03-08T05:49:53.957Z,93697.00
2023-03-08T05:50:53.945Z,93697.00
2023-03-08T05:51:53.942Z,93697.00
2023-03-08T05:52:53.930Z,93699.00
2023-03-08T05:53:53.919Z,93701.00
2023-03-08T05:54:53.911Z,93701.00
2023-03-08T05:55:53.905Z,93701.00
2023-03-08T05:56:53.897Z,93699.00
2023-03-08T05:57:53.885Z,93697.00
2023-03-08T05:58:53.910Z,93695.00
2023-03-08T05:59:53.867Z,93693.00
2023-03-08T06:00:53.864Z,93691.00
2023-03-08T06:01:53.923Z,93691.00
2023-03-08T06:02:53.867Z,93691.00
2023-03-08T06:03:53.840Z,93693.00
2023-03-08T06:04:53.830Z,93691.00
2023-03-08T06:05:53.823Z,93691.00
2023-03-08T06:06:53.823Z,93691.00
2023-03-08T06:07:53.803Z,93693.00
2023-03-08T06:08:53.797Z,93695.00
2023-03-08T06:09:53.812Z,93695.00
2023-03-08T06:10:53.792Z,93691.00
2023-03-08T06:11:53.771Z,93695.00
2023-03-08T06:12:54.177Z,93697.00
2023-03-08T06:13:53.754Z,93697.00
2023-03-08T06:14:53.885Z,93699.00
2023-03-08T06:15:53.750Z,93705.00
2023-03-08T06:16:53.759Z,93705.00
2023-03-08T06:17:54.204Z,93707.00
2023-03-08T06:18:53.717Z,93713.00
2023-03-08T06:19:53.711Z,93715.00
2023-03-08T06:20:53.701Z,93717.00
2023-03-08T06:21:53.695Z,93715.00
2023-03-08T06:22:53.676Z,93713.00
2023-03-08T06:23:53.712Z,93713.00
2023-03-08T06:24:53.668Z,93709.00
2023-03-08T06:25:53.652Z,93709.00
2023-03-08T06:26:53.647Z,93711.00
2023-03-08T06:28:53.630Z,93715.00
2023-03-08T06:29:53.626Z,93713.00
2023-03-08T06:30:53.706Z,93709.00
2023-03-08T06:31:53.613Z,93707.00
2023-03-08T06:32:53.693Z,93707.00
2023-03-08T06:33:53.602Z,93705.00
2023-03-08T06:34:53.596Z,93705.00
2023-03-08T06:35:53.661Z,93703.00
2023-03-08T06:36:53.574Z,93707.00
2023-03-08T06:37:53.570Z,93709.00
2023-03-08T06:38:53.575Z,93707.00
2023-03-08T06:39:53.554Z,93711.00
2023-03-08T06:40:53.700Z,93711.00
2023-03-08T06:41:53.540Z,93707.00
2023-03-08T06:42:53.526Z,93705.00
2023-03-08T06:43:53.526Z,93707.00
2023-03-08T06:44:53.520Z,93707.00
2023-03-08T06:45:53.742Z,93707.00
2023-03-08T06:46:53.516Z,93703.00
2023-03-08T06:48:53.854Z,93711.00
2023-03-08T06:49:53.518Z,93707.00
2023-03-08T06:50:53.706Z,93705.00
2023-03-08T06:51:53.478Z,93709.00
2023-03-08T06:52:53.449Z,93703.00
2023-03-08T06:53:53.749Z,93705.00
2023-03-08T06:54:53.433Z,93705.00
2023-03-08T06:55:53.424Z,93701.00
2023-03-08T06:56:53.704Z,93701.00
2023-03-08T06:57:53.440Z,93701.00
2023-03-08T06:58:53.404Z,93701.00
2023-03-08T06:59:53.414Z,93701.00
2023-03-08T07:01:00.849Z,93705.00
2023-03-08T07:03:53.376Z,93705.00
2023-03-08T07:04:53.388Z,93699.00
2023-03-08T07:05:53.365Z,93703.00
2023-03-08T07:06:53.796Z,93701.00
2023-03-08T07:09:53.307Z,93701.00
2023-03-08T07:10:53.323Z,93701.00
2023-03-08T07:11:53.728Z,93701.00
2023-03-08T07:12:53.325Z,93703.00
2023-03-08T07:13:53.705Z,93705.00
2023-03-08T07:14:53.314Z,93707.00
2023-03-08T07:16:53.264Z,93715.00
2023-03-08T07:19:53.710Z,93721.00
2023-03-08T07:20:53.223Z,93723.00
2023-03-08T07:21:53.197Z,93725.00
2023-03-08T07:22:53.191Z,93725.00
2023-03-08T07:23:53.236Z,93723.00
2023-03-08T07:25:53.189Z,93719.00
2023-03-08T07:26:53.177Z,93721.00
2023-03-08T07:27:53.171Z,93719.00
2023-03-08T07:28:53.169Z,93715.00
2023-03-08T07:29:54.747Z,93715.00
2023-03-08T07:30:53.242Z,93711.00
2023-03-08T07:31:53.177Z,93709.00
2023-03-08T07:32:53.334Z,93707.00
2023-03-08T07:33:53.088Z,93709.00
2023-03-08T07:34:53.264Z,93707.00
2023-03-08T07:35:53.115Z,93711.00
2023-03-08T07:36:53.074Z,93707.00
2023-03-08T07:37:53.292Z,93707.00
2023-03-08T07:38:53.053Z,93707.00
2023-03-08T07:39:53.044Z,93709.00
2023-03-08T07:40:53.035Z,93715.00
2023-03-08T07:41:53.215Z,93715.00
2023-03-08T07:42:53.030Z,93719.00
2023-03-08T07:43:53.007Z,93721.00
2023-03-08T07:44:53.041Z,93725.00
2023-03-08T07:45:53.023Z,93717.00
2023-03-08T07:47:17.006Z,93715.00
2023-03-08T07:48:17.692Z,93709.00
2023-03-08T07:49:17.674Z,93709.00
2023-03-08T07:50:18.041Z,93711.00
2023-03-08T07:51:17.718Z,93711.00
2023-03-08T07:53:17.668Z,93709.00
2023-03-08T07:54:17.663Z,93707.00
2023-03-08T07:55:18.032Z,93711.00
2023-03-08T07:56:17.650Z,93713.00
2023-03-08T07:57:17.612Z,93713.00
2023-03-08T07:58:17.617Z,93707.00
2023-03-08T07:59:17.597Z,93703.00
2023-03-08T08:00:18.035Z,93705.00
2023-03-08T08:01:17.597Z,93705.00
2023-03-08T08:02:17.589Z,93705.00
2023-03-08T08:03:18.641Z,93707.00
2023-03-08T08:04:18.054Z,93705.00
2023-03-08T08:05:18.458Z,93705.00
2023-03-08T08:06:17.575Z,93705.00
2023-03-08T08:07:18.156Z,93709.00
2023-03-08T08:08:17.538Z,93711.00
2023-03-08T08:09:17.524Z,93711.00
2023-03-08T08:10:17.545Z,93711.00
2023-03-08T08:11:17.496Z,93709.00
2023-03-08T08:12:18.477Z,93705.00
2023-03-08T08:13:17.596Z,93705.00
2023-03-08T08:14:17.455Z,93699.00
2023-03-08T08:15:17.704Z,93695.00
2023-03-08T08:16:17.491Z,93687.00
2023-03-08T08:17:17.446Z,93687.00
2023-03-08T08:18:17.452Z,93689.00
2023-03-08T08:19:17.428Z,93684.00
2023-03-08T08:20:17.414Z,93680.00
2023-03-08T08:21:17.534Z,93674.00
2023-03-08T08:22:17.411Z,93666.00
2023-03-08T08:23:18.010Z,93664.00
2023-03-08T08:24:18.011Z,93660.00
2023-03-08T08:25:17.364Z,93660.00
2023-03-08T08:26:17.347Z,93662.00
2023-03-08T08:27:17.616Z,93662.00
2023-03-08T08:28:17.329Z,93660.00
2023-03-08T08:29:17.313Z,93652.00
2023-03-08T08:30:18.309Z,93648.00
2023-03-08T08:31:17.317Z,93648.00
2023-03-08T08:32:17.431Z,93656.00
2023-03-08T08:33:17.535Z,93658.00
2023-03-08T08:34:17.267Z,93650.00
2023-03-08T08:35:17.271Z,93634.00
2023-03-08T08:36:17.610Z,93632.00
2023-03-08T08:37:17.250Z,93634.00
2023-03-08T08:39:17.231Z,93625.00
2023-03-08T08:40:17.213Z,93599.00
2023-03-08T08:41:17.221Z,93590.00
2023-03-08T08:42:17.328Z,93597.00
2023-03-08T08:43:17.541Z,93611.00
2023-03-08T08:44:17.211Z,93619.00
2023-03-08T08:45:17.167Z,93609.00
2023-03-08T08:46:17.535Z,93592.00
2023-03-08T08:47:17.879Z,93580.00
2023-03-08T08:48:17.149Z,93582.00
2023-03-08T08:49:17.137Z,93597.00
2023-03-08T08:50:17.132Z,93601.00
2023-03-08T08:51:17.516Z,93599.00
2023-03-08T08:52:17.125Z,93584.00
2023-03-08T08:53:17.134Z,93572.00
2023-03-08T08:54:20.375Z,93574.00
2023-03-08T08:55:17.567Z,93580.00
2023-03-08T08:56:27.177Z,93584.00
2023-03-08T08:57:17.238Z,93576.00
2023-03-08T08:58:17.900Z,93554.00
2023-03-08T08:59:17.053Z,93550.00
2023-03-08T09:00:18.103Z,93564.00
2023-03-08T09:01:17.318Z,93580.00
2023-03-08T09:02:17.302Z,93584.00
2023-03-08T09:03:17.520Z,93568.00
2023-03-08T09:04:17.292Z,93554.00
2023-03-08T09:05:17.059Z,93546.00
2023-03-08T09:06:17.001Z,93554.00
2023-03-08T09:07:17.033Z,93558.00
2023-03-08T09:08:16.981Z,93550.00
2023-03-08T09:09:16.966Z,93541.00
2023-03-08T09:10:17.031Z,93539.00
2023-03-08T09:11:16.972Z,93543.00
2023-03-08T09:12:17.040Z,93537.00
2023-03-08T09:13:17.010Z,93531.00
2023-03-08T09:14:16.925Z,93523.00
2023-03-08T09:15:16.920Z,93529.00
2023-03-08T09:16:16.931Z,93531.00
2023-03-08T09:17:17.036Z,93523.00
2023-03-08T09:18:16.894Z,93515.00
2023-03-08T09:19:16.957Z,93509.00
2023-03-08T09:20:16.893Z,93509.00
2023-03-08T09:21:16.882Z,93515.00
2023-03-08T09:22:17.030Z,93521.00
2023-03-08T09:23:16.894Z,93513.00
2023-03-08T09:24:16.863Z,93501.00
2023-03-08T09:25:16.846Z,93501.00
2023-03-08T09:26:16.866Z,93511.00
2023-03-08T09:27:17.034Z,93511.00
2023-03-08T09:28:16.849Z,93507.00
2023-03-08T09:30:16.806Z,93484.00
2023-03-08T09:31:16.946Z,93484.00
2023-03-08T09:32:17.197Z,93484.00
2023-03-08T09:33:16.778Z,93488.00
2023-03-08T09:34:16.775Z,93486.00
2023-03-08T09:35:16.767Z,93482.00
2023-03-08T09:36:16.747Z,93482.00
2023-03-08T09:37:16.739Z,93476.00
2023-03-08T09:38:17.064Z,93466.00
2023-03-08T09:39:16.724Z,93464.00
2023-03-08T09:40:16.728Z,93474.00
2023-03-08T09:41:16.708Z,93480.00
2023-03-08T09:42:16.723Z,93482.00
2023-03-08T09:43:17.041Z,93470.00
2023-03-08T09:44:17.041Z,93450.00
2023-03-08T09:45:16.672Z,93431.00
2023-03-08T09:46:16.697Z,93441.00
2023-03-08T09:47:16.659Z,93446.00
2023-03-08T09:48:16.668Z,93452.00
2023-03-08T09:49:17.053Z,93441.00
2023-03-08T09:50:16.634Z,93441.00
2023-03-08T09:51:16.623Z,93425.00
2023-03-08T09:52:16.616Z,93417.00
2023-03-08T09:53:16.608Z,93419.00
2023-03-08T09:54:17.047Z,93433.00
2023-03-08T09:55:16.626Z,93443.00
2023-03-08T09:56:16.583Z,93427.00
2023-03-08T09:57:16.636Z,93415.00
2023-03-08T09:58:16.625Z,93401.00
2023-03-08T09:59:17.047Z,93399.00
2023-03-08T10:00:16.539Z,93409.00
2023-03-08T10:01:16.546Z,93419.00
2023-03-08T10:02:16.523Z,93423.00
2023-03-08T10:03:16.622Z,93413.00
2023-03-08T10:04:16.508Z,93417.00
2023-03-08T10:05:16.541Z,93407.00
2023-03-08T10:06:16.493Z,93403.00
2023-03-08T10:07:16.477Z,93398.00
2023-03-08T10:08:16.489Z,93392.00
2023-03-08T10:09:16.463Z,93390.00
2023-03-08T10:10:16.577Z,93392.00
2023-03-08T10:11:16.442Z,93392.00
2023-03-08T10:12:16.432Z,93382.00
2023-03-08T10:13:16.423Z,93376.00
2023-03-08T10:14:17.021Z,93382.00
2023-03-08T10:15:16.410Z,93376.00
2023-03-08T10:16:16.448Z,93380.00
2023-03-08T10:17:16.392Z,93378.00
2023-03-08T10:18:16.895Z,93376.00
2023-03-08T10:19:16.577Z,93378.00
2023-03-08T10:20:16.367Z,93370.00
2023-03-08T10:21:16.669Z,93368.00
2023-03-08T10:22:16.359Z,93360.00
2023-03-08T10:23:16.347Z,93356.00
2023-03-08T10:24:16.350Z,93362.00
2023-03-08T10:25:16.371Z,93364.00
2023-03-08T10:26:16.580Z,93364.00
2023-03-08T10:27:16.307Z,93376.00
2023-03-08T10:28:16.299Z,93358.00
2023-03-08T10:29:16.293Z,93341.00
2023-03-08T10:30:16.310Z,93345.00
2023-03-08T10:31:16.590Z,93343.00
2023-03-08T10:32:16.357Z,93335.00
2023-03-08T10:33:16.268Z,93337.00
2023-03-08T10:34:16.723Z,93335.00
2023-03-08T10:35:16.264Z,93339.00
2023-03-08T10:36:16.232Z,93343.00
2023-03-08T10:37:16.576Z,93345.00
